Time;durP1;ratioP1;P1;durP2;ratioP2;P2;SDS_P1;SDS_P2;PMS_P1;PMS_P2;Temp;Humidity;BMP_temperature;BMP_pressure;BME280_temperature;BME280_humidity;BME280_pressure;Samples;Min_cycle;Max_cycle;Signal;HPM_P1;HPM_P2
2021/12/17 00:00:46;;;;;;;8.38;4.03;;;;;;;;;;5055107;28;20552;-73
2021/12/17 00:03:19;;;;;;;7.00;3.53;;;;;;;;;;5055126;28;20036;-74
2021/12/17 00:08:16;;;;;;;5.68;2.95;;;;;;;;;;5055049;28;20104;-75
2021/12/17 00:10:43;;;;;;;5.35;2.92;;;;;;;;;;5055012;28;20051;-73
2021/12/17 00:13:09;;;;;;;7.22;3.45;;;;;;;;;;5054931;28;20050;-74
2021/12/17 00:15:36;;;;;;;4.43;2.88;;;;;;;;;;5055440;28;20043;-72
2021/12/17 00:18:11;;;;;;;8.13;3.88;;;;;;;;;;5053617;28;20025;-74
2021/12/17 00:53:16;;;;;;;3.90;2.22;;;;;;;;;;5074955;28;20036;-75
2021/12/17 00:55:42;;;;;;;3.22;2.00;;;;;;;;;;5056200;28;20036;-74
2021/12/17 00:58:08;;;;;;;4.72;2.25;;;;;;;;;;5073974;28;20028;-73
2021/12/17 01:00:34;;;;;;;4.53;2.90;;;;;;;;;;5056006;28;20473;-75
2021/12/17 01:03:00;;;;;;;4.47;2.50;;;;;;;;;;5056127;28;20027;-77
2021/12/17 01:05:28;;;;;;;4.80;2.47;;;;;;;;;;5073912;28;20078;-74
2021/12/17 01:07:56;;;;;;;4.22;2.45;;;;;;;;;;5055891;28;20029;-76
2021/12/17 01:10:30;;;;;;;4.05;2.67;;;;;;;;;;5055872;28;20392;-75
2021/12/17 01:12:57;;;;;;;3.47;2.53;;;;;;;;;;5055831;28;20381;-76
2021/12/17 01:15:24;;;;;;;3.70;2.47;;;;;;;;;;5055760;28;20111;-76
2021/12/17 01:17:54;;;;;;;5.07;3.13;;;;;;;;;;5073720;28;20029;-75
2021/12/17 01:21:19;;;;;;;4.78;3.13;;;;;;;;;;5055721;28;20051;-76
2021/12/17 01:35:20;;;;;;;5.65;3.30;;;;;;;;;;5056338;28;20029;-73
2021/12/17 01:37:06;;;;;;;5.65;3.08;;;;;;;;;;5073535;28;20051;-75
2021/12/17 01:42:17;;;;;;;7.38;4.15;;;;;;;;;;5073399;28;20067;-73
2021/12/17 01:44:44;;;;;;;6.68;3.65;;;;;;;;;;5055442;28;20095;-75
2021/12/17 01:47:12;;;;;;;6.25;3.80;;;;;;;;;;5073093;28;20074;-74
2021/12/17 02:00:11;;;;;;;10.98;4.38;;;;;;;;;;5073149;28;20056;-76
2021/12/17 02:02:43;;;;;;;5.25;3.47;;;;;;;;;;5055236;28;20028;-74
2021/12/17 02:05:10;;;;;;;7.13;4.20;;;;;;;;;;5073174;28;20036;-75
2021/12/17 02:07:37;;;;;;;7.95;4.28;;;;;;;;;;5073958;28;20052;-75
2021/12/17 02:12:55;;;;;;;5.18;3.50;;;;;;;;;;5073141;28;20109;-75
2021/12/17 02:28:44;;;;;;;5.68;3.53;;;;;;;;;;5073045;28;20032;-74
2021/12/17 02:29:00;;;;;;;7.30;4.15;;;;;;;;;;5073589;28;20036;-76
2021/12/17 02:33:54;;;;;;;9.30;3.60;;;;;;;;;;5072904;28;20060;-76
2021/12/17 02:36:25;;;;;;;7.45;3.80;;;;;;;;;;5054926;28;20051;-75
2021/12/17 02:38:54;;;;;;;5.68;3.42;;;;;;;;;;5073215;28;20086;-77
2021/12/17 02:46:50;;;;;;;7.10;3.63;;;;;;;;;;5072808;28;20047;-76
2021/12/17 02:49:17;;;;;;;7.70;3.42;;;;;;;;;;5054843;28;20082;-74
2021/12/17 02:51:43;;;;;;;7.32;3.35;;;;;;;;;;5072776;28;20035;-75
2021/12/17 02:54:09;;;;;;;6.45;3.55;;;;;;;;;;5054754;28;20135;-76
2021/12/17 02:56:36;;;;;;;9.50;3.50;;;;;;;;;;5054746;28;20025;-75
2021/12/17 02:59:02;;;;;;;10.32;3.85;;;;;;;;;;5054702;28;20033;-76
2021/12/17 03:01:28;;;;;;;7.15;3.53;;;;;;;;;;5058012;28;20129;-76
2021/12/17 03:03:55;;;;;;;6.80;3.35;;;;;;;;;;5076351;28;20021;-75
2021/12/17 03:06:22;;;;;;;9.75;3.42;;;;;;;;;;5076237;28;20100;-76
2021/12/17 03:08:48;;;;;;;9.60;3.70;;;;;;;;;;5076760;28;20411;-75
2021/12/17 03:11:15;;;;;;;7.25;3.25;;;;;;;;;;5076111;28;20039;-77
2021/12/17 03:13:44;;;;;;;9.50;3.00;;;;;;;;;;5058165;28;20020;-74
2021/12/17 03:16:24;;;;;;;9.07;3.85;;;;;;;;;;5058228;28;20028;-76
2021/12/17 03:19:24;;;;;;;8.57;3.78;;;;;;;;;;5076320;28;20032;-76
2021/12/17 03:24:49;;;;;;;7.07;3.30;;;;;;;;;;5053680;28;20035;-76
2021/12/17 03:27:16;;;;;;;9.40;3.35;;;;;;;;;;5075877;28;20025;-76
2021/12/17 03:29:42;;;;;;;11.65;3.50;;;;;;;;;;5075809;28;20040;-77
2021/12/17 03:32:08;;;;;;;9.07;3.40;;;;;;;;;;5075874;28;20027;-75
2021/12/17 03:34:34;;;;;;;8.15;3.63;;;;;;;;;;5057747;28;20020;-76
2021/12/17 03:37:00;;;;;;;9.70;3.65;;;;;;;;;;5075761;28;20020;-75
2021/12/17 03:39:30;;;;;;;10.80;3.92;;;;;;;;;;5054084;28;20040;-76
2021/12/17 03:41:57;;;;;;;10.07;3.88;;;;;;;;;;5054222;28;20033;-76
2021/12/17 03:44:24;;;;;;;10.00;4.07;;;;;;;;;;5055560;28;20021;-75
2021/12/17 03:46:51;;;;;;;8.40;3.35;;;;;;;;;;5055978;28;20079;-74
2021/12/17 03:49:18;;;;;;;7.47;3.30;;;;;;;;;;5054210;28;20052;-76
2021/12/17 03:51:52;;;;;;;6.30;2.97;;;;;;;;;;5055358;28;20042;-76
2021/12/17 03:54:18;;;;;;;19.77;4.10;;;;;;;;;;5054136;28;20025;-76
2021/12/17 03:56:45;;;;;;;9.25;3.50;;;;;;;;;;5055286;28;20035;-75
2021/12/17 03:59:11;;;;;;;9.60;3.85;;;;;;;;;;5055803;28;20032;-74
2021/12/17 04:01:39;;;;;;;11.48;3.28;;;;;;;;;;5053838;28;20489;-76
2021/12/17 04:04:05;;;;;;;8.25;3.50;;;;;;;;;;5053906;28;20533;-76
2021/12/17 04:06:32;;;;;;;7.50;3.10;;;;;;;;;;5055696;28;20374;-76
2021/12/17 04:08:58;;;;;;;5.85;2.80;;;;;;;;;;5053804;28;20040;-75
2021/12/17 04:11:25;;;;;;;8.00;3.30;;;;;;;;;;5055228;28;20029;-75
2021/12/17 04:13:54;;;;;;;8.55;2.80;;;;;;;;;;5055813;28;20358;-76
2021/12/17 04:16:24;;;;;;;9.82;2.90;;;;;;;;;;5053582;28;20065;-76
2021/12/17 04:18:51;;;;;;;8.25;2.80;;;;;;;;;;5053620;28;20028;-76
2021/12/17 04:21:17;;;;;;;8.38;2.80;;;;;;;;;;5054756;28;20474;-74
2021/12/17 04:23:44;;;;;;;7.40;2.72;;;;;;;;;;5053519;28;20021;-75
2021/12/17 04:26:11;;;;;;;8.40;2.97;;;;;;;;;;5054763;28;20033;-74
2021/12/17 04:28:42;;;;;;;10.38;3.25;;;;;;;;;;5053429;28;20473;-76
2021/12/17 04:31:08;;;;;;;6.20;2.70;;;;;;;;;;5053429;28;20021;-74
2021/12/17 04:33:37;;;;;;;7.47;2.92;;;;;;;;;;5054822;28;20025;-75
2021/12/17 04:36:04;;;;;;;8.77;2.75;;;;;;;;;;5053260;28;20075;-76
2021/12/17 04:38:30;;;;;;;7.90;2.97;;;;;;;;;;5054757;28;20120;-75
2021/12/17 04:41:07;;;;;;;9.02;2.70;;;;;;;;;;5052926;28;20068;-74
2021/12/17 04:43:42;;;;;;;7.95;3.15;;;;;;;;;;5053442;28;20359;-74
2021/12/17 04:46:24;;;;;;;10.75;2.60;;;;;;;;;;5053085;28;20029;-73
2021/12/17 05:00:04;;;;;;;8.88;2.83;;;;;;;;;;5040663;28;20025;-76
2021/12/17 05:02:33;;;;;;;5.93;2.50;;;;;;;;;;5052786;28;20036;-74
2021/12/17 05:05:05;;;;;;;5.47;2.50;;;;;;;;;;5054044;28;20071;-75
2021/12/17 05:07:32;;;;;;;9.65;2.65;;;;;;;;;;5054543;28;20031;-76
2021/12/17 05:10:10;;;;;;;7.25;2.33;;;;;;;;;;5053870;28;20025;-76
2021/12/17 05:18:18;;;;;;;9.40;2.20;;;;;;;;;;5053869;28;20098;-74
2021/12/17 05:20:49;;;;;;;8.32;2.10;;;;;;;;;;5052536;28;20123;-76
2021/12/17 05:23:16;;;;;;;5.00;1.83;;;;;;;;;;5053644;28;20024;-76
2021/12/17 05:25:42;;;;;;;9.77;2.40;;;;;;;;;;5053718;28;20044;-74
2021/12/17 05:28:09;;;;;;;8.23;2.20;;;;;;;;;;5053647;28;20035;-76
2021/12/17 05:30:36;;;;;;;5.55;2.08;;;;;;;;;;5053642;28;20021;-76
2021/12/17 05:33:02;;;;;;;7.30;2.13;;;;;;;;;;5053622;28;20385;-76
2021/12/17 05:35:29;;;;;;;8.07;2.03;;;;;;;;;;5053571;28;20032;-76
2021/12/17 05:37:55;;;;;;;7.75;2.63;;;;;;;;;;5052173;28;20158;-73
2021/12/17 05:40:22;;;;;;;9.00;2.40;;;;;;;;;;5051927;28;20107;-75
2021/12/17 05:42:54;;;;;;;5.65;2.10;;;;;;;;;;5053337;28;20053;-74
2021/12/17 05:45:31;;;;;;;9.68;2.33;;;;;;;;;;5052219;28;20033;-75
2021/12/17 05:47:58;;;;;;;12.75;3.75;;;;;;;;;;5053876;28;20021;-75
2021/12/17 05:50:24;;;;;;;11.13;2.67;;;;;;;;;;5053876;28;20025;-75
2021/12/17 05:52:50;;;;;;;10.80;3.47;;;;;;;;;;5052026;28;20025;-77
2021/12/17 05:55:16;;;;;;;8.73;2.58;;;;;;;;;;5053337;28;20054;-74
2021/12/17 05:57:42;;;;;;;5.85;2.40;;;;;;;;;;5053267;28;20083;-75
2021/12/17 06:00:09;;;;;;;9.65;4.32;;;;;;;;;;5051904;28;20029;-73
2021/12/17 06:02:35;;;;;;;9.23;2.92;;;;;;;;;;5053081;28;20044;-74
2021/12/17 06:05:01;;;;;;;7.90;3.17;;;;;;;;;;5051933;28;20025;-74
2021/12/17 06:07:28;;;;;;;9.65;3.03;;;;;;;;;;5053699;28;20027;-75
2021/12/17 06:09:57;;;;;;;7.45;2.65;;;;;;;;;;5053154;28;20029;-74
2021/12/17 06:12:23;;;;;;;6.50;2.78;;;;;;;;;;5053097;28;20024;-76
2021/12/17 06:14:50;;;;;;;8.65;2.72;;;;;;;;;;5051861;28;20029;-76
2021/12/17 06:17:16;;;;;;;12.30;3.42;;;;;;;;;;5051783;28;20497;-73
2021/12/17 06:19:43;;;;;;;7.85;2.50;;;;;;;;;;5053634;28;20033;-74
2021/12/17 06:22:09;;;;;;;6.43;2.80;;;;;;;;;;5051711;28;20120;-75
2021/12/17 06:24:35;;;;;;;8.23;2.35;;;;;;;;;;5053033;28;20108;-76
2021/12/17 06:27:02;;;;;;;8.30;2.40;;;;;;;;;;5053026;28;20036;-76
2021/12/17 06:29:28;;;;;;;9.30;3.03;;;;;;;;;;5053239;28;20424;-76
2021/12/17 06:31:54;;;;;;;12.40;2.92;;;;;;;;;;5052991;28;20057;-75
2021/12/17 06:34:21;;;;;;;8.80;2.80;;;;;;;;;;5054227;28;20036;-76
2021/12/17 06:36:47;;;;;;;8.00;2.63;;;;;;;;;;5056824;28;20428;-75
2021/12/17 06:39:13;;;;;;;8.70;2.78;;;;;;;;;;5058732;28;20029;-73
2021/12/17 06:41:39;;;;;;;8.38;2.83;;;;;;;;;;5058695;28;20500;-74
2021/12/17 06:44:10;;;;;;;5.65;2.70;;;;;;;;;;5058717;28;20020;-76
2021/12/17 06:46:53;;;;;;;6.72;2.90;;;;;;;;;;5058682;28;20024;-76
2021/12/17 06:49:31;;;;;;;7.07;2.72;;;;;;;;;;5077152;28;20025;-74
2021/12/17 06:55:00;;;;;;;13.85;3.30;;;;;;;;;;5076594;28;20105;-76
2021/12/17 07:05:59;;;;;;;8.32;3.90;;;;;;;;;;5076309;28;20079;-74
2021/12/17 07:40:07;;;;;;;8.48;2.22;;;;;;;;;;5075515;28;20044;-74
2021/12/17 07:42:33;;;;;;;7.03;2.22;;;;;;;;;;5057593;28;20400;-75
2021/12/17 07:45:00;;;;;;;5.55;2.30;;;;;;;;;;5075243;28;20462;-73
2021/12/17 07:47:26;;;;;;;9.75;1.67;;;;;;;;;;5075197;28;20035;-74
2021/12/17 07:49:52;;;;;;;9.20;2.38;;;;;;;;;;5057543;28;20032;-74
2021/12/17 07:52:19;;;;;;;5.65;2.08;;;;;;;;;;5057539;28;20021;-74
2021/12/17 07:54:45;;;;;;;6.70;1.98;;;;;;;;;;5075432;28;20465;-75
2021/12/17 07:57:11;;;;;;;7.43;2.58;;;;;;;;;;5075881;28;20150;-74
2021/12/17 07:59:39;;;;;;;7.72;2.15;;;;;;;;;;5075517;28;20063;-76
2021/12/17 08:02:05;;;;;;;5.72;2.33;;;;;;;;;;5057633;28;20033;-75
2021/12/17 08:04:31;;;;;;;5.35;2.45;;;;;;;;;;5057271;28;20025;-75
2021/12/17 08:06:57;;;;;;;9.02;2.85;;;;;;;;;;5075203;28;20028;-76
2021/12/17 08:09:25;;;;;;;13.48;2.80;;;;;;;;;;5075122;28;20489;-76
2021/12/17 08:11:56;;;;;;;8.25;2.60;;;;;;;;;;5075066;28;20108;-76
2021/12/17 08:14:22;;;;;;;10.85;2.47;;;;;;;;;;5057180;28;20447;-75
2021/12/17 08:24:59;;;;;;;7.95;1.80;;;;;;;;;;5075129;28;20048;-74
2021/12/17 08:27:45;;;;;;;4.13;1.75;;;;;;;;;;5056837;28;20119;-75
2021/12/17 08:30:23;;;;;;;2.75;1.10;;;;;;;;;;5056835;28;20070;-77
2021/12/17 08:32:49;;;;;;;5.30;1.17;;;;;;;;;;5056763;28;20033;-77
2021/12/17 08:35:16;;;;;;;3.63;1.30;;;;;;;;;;5056670;28;20106;-76
2021/12/17 08:37:42;;;;;;;5.43;1.05;;;;;;;;;;5074763;28;20032;-76
2021/12/17 08:40:10;;;;;;;9.35;1.60;;;;;;;;;;5074159;28;20098;-76
2021/12/17 08:42:36;;;;;;;4.00;1.75;;;;;;;;;;5074316;28;20044;-76
2021/12/17 08:45:04;;;;;;;3.33;1.20;;;;;;;;;;5074349;28;20050;-76
2021/12/17 08:47:30;;;;;;;7.05;1.52;;;;;;;;;;5056396;28;20032;-76
2021/12/17 08:50:04;;;;;;;4.43;1.40;;;;;;;;;;5074778;28;20035;-78
2021/12/17 08:52:30;;;;;;;7.30;1.90;;;;;;;;;;5056437;28;20064;-76
2021/12/17 08:54:56;;;;;;;4.72;1.35;;;;;;;;;;5056260;28;20028;-75
2021/12/17 08:57:22;;;;;;;3.00;1.02;;;;;;;;;;5073159;28;20119;-75
2021/12/17 08:59:49;;;;;;;4.43;1.75;;;;;;;;;;5074627;28;20378;-76
2021/12/17 09:02:15;;;;;;;7.03;1.60;;;;;;;;;;5073944;28;20070;-75
2021/12/17 09:04:41;;;;;;;4.13;1.42;;;;;;;;;;5074047;28;20421;-76
2021/12/17 09:07:07;;;;;;;4.57;1.30;;;;;;;;;;5074480;28;20100;-76
2021/12/17 09:09:34;;;;;;;3.28;1.30;;;;;;;;;;5074479;28;20476;-75
2021/12/17 09:12:00;;;;;;;6.13;1.45;;;;;;;;;;5056006;28;20037;-75
2021/12/17 09:14:28;;;;;;;8.32;1.80;;;;;;;;;;5074093;28;20043;-76
2021/12/17 09:16:55;;;;;;;3.00;1.40;;;;;;;;;;5073755;28;20029;-76
2021/12/17 09:19:22;;;;;;;7.57;1.77;;;;;;;;;;5074328;28;20024;-76
2021/12/17 09:21:49;;;;;;;6.78;1.90;;;;;;;;;;5073696;28;20033;-75
2021/12/17 09:24:15;;;;;;;7.55;1.50;;;;;;;;;;5073698;28;20025;-76
2021/12/17 09:26:42;;;;;;;4.13;1.25;;;;;;;;;;5073544;28;20399;-77
2021/12/17 09:29:08;;;;;;;5.03;1.75;;;;;;;;;;5073490;28;20478;-77
2021/12/17 09:31:36;;;;;;;4.63;1.65;;;;;;;;;;5073841;28;20034;-76
2021/12/17 09:34:02;;;;;;;2.70;1.27;;;;;;;;;;5073874;28;20025;-77
2021/12/17 09:36:29;;;;;;;6.35;1.75;;;;;;;;;;5073844;28;20024;-75
2021/12/17 09:38:55;;;;;;;6.07;1.70;;;;;;;;;;5073730;28;20075;-75
2021/12/17 09:41:22;;;;;;;4.32;2.03;;;;;;;;;;5073080;28;20057;-75
2021/12/17 09:43:49;;;;;;;2.97;1.17;;;;;;;;;;5055468;28;20028;-77
2021/12/17 09:46:16;;;;;;;4.80;1.25;;;;;;;;;;5073442;28;20370;-74
2021/12/17 09:48:44;;;;;;;7.13;1.67;;;;;;;;;;5073392;28;20028;-77
2021/12/17 09:51:11;;;;;;;3.95;1.45;;;;;;;;;;5055425;28;20039;-74
2021/12/17 09:53:37;;;;;;;2.88;1.23;;;;;;;;;;5073961;28;20024;-73
2021/12/17 09:56:04;;;;;;;4.82;1.50;;;;;;;;;;5055246;28;20028;-73
2021/12/17 09:58:31;;;;;;;3.25;1.40;;;;;;;;;;5055313;28;20024;-73
2021/12/17 10:00:57;;;;;;;3.13;1.15;;;;;;;;;;5055195;28;20082;-72
2021/12/17 10:03:24;;;;;;;7.18;1.85;;;;;;;;;;5055313;28;20145;-74
2021/12/17 10:05:50;;;;;;;6.40;2.00;;;;;;;;;;5056053;28;20031;-74
2021/12/17 10:08:19;;;;;;;4.82;1.52;;;;;;;;;;5055242;28;20029;-74
2021/12/17 10:10:47;;;;;;;6.43;1.35;;;;;;;;;;5059399;28;20051;-75
2021/12/17 10:13:19;;;;;;;3.72;1.35;;;;;;;;;;5059287;28;20028;-74
2021/12/17 10:15:47;;;;;;;6.33;1.90;;;;;;;;;;5060126;28;20074;-73
2021/12/17 10:18:14;;;;;;;3.25;1.17;;;;;;;;;;5059165;28;20763;-75
2021/12/17 10:20:52;;;;;;;3.92;1.25;;;;;;;;;;5077898;28;20103;-75
2021/12/17 10:23:20;;;;;;;4.20;1.45;;;;;;;;;;5059348;28;20025;-74
2021/12/17 10:25:46;;;;;;;6.18;1.40;;;;;;;;;;5059115;28;20027;-74
2021/12/17 10:28:15;;;;;;;3.42;1.42;;;;;;;;;;5059108;28;20037;-76
2021/12/17 10:30:43;;;;;;;5.22;1.52;;;;;;;;;;5059120;28;20056;-75
2021/12/17 10:33:13;;;;;;;3.72;1.77;;;;;;;;;;5059173;28;20033;-76
2021/12/17 10:35:44;;;;;;;5.93;1.48;;;;;;;;;;5059043;28;20047;-76
2021/12/17 10:38:13;;;;;;;4.82;1.10;;;;;;;;;;5077524;28;20436;-76
2021/12/17 10:40:45;;;;;;;4.32;1.60;;;;;;;;;;5076570;28;20094;-76
2021/12/17 10:43:19;;;;;;;4.57;1.40;;;;;;;;;;5058922;28;20029;-75
2021/12/17 10:45:58;;;;;;;7.15;1.52;;;;;;;;;;5077267;28;20025;-76
2021/12/17 10:48:34;;;;;;;4.13;1.48;;;;;;;;;;5077207;28;20082;-74
2021/12/17 10:51:12;;;;;;;3.58;1.50;;;;;;;;;;5077233;28;20016;-76
2021/12/17 10:53:38;;;;;;;3.83;1.30;;;;;;;;;;5076555;28;20021;-76
2021/12/17 10:56:04;;;;;;;2.78;1.20;;;;;;;;;;5058595;28;20059;-76
2021/12/17 10:58:31;;;;;;;5.45;1.30;;;;;;;;;;5076450;28;20027;-76
2021/12/17 11:01:07;;;;;;;4.90;1.55;;;;;;;;;;5058449;28;20081;-76
2021/12/17 11:03:40;;;;;;;5.35;2.03;;;;;;;;;;5076893;28;20082;-76
2021/12/17 11:06:07;;;;;;;2.80;1.35;;;;;;;;;;5058435;28;20050;-76
2021/12/17 11:08:37;;;;;;;4.97;1.52;;;;;;;;;;5076248;28;20033;-74
2021/12/17 11:11:08;;;;;;;4.60;1.60;;;;;;;;;;5058261;28;20035;-76
2021/12/17 11:13:35;;;;;;;4.25;1.27;;;;;;;;;;5076200;28;20381;-76
2021/12/17 11:16:02;;;;;;;9.27;1.55;;;;;;;;;;5058146;28;20029;-74
2021/12/17 11:18:28;;;;;;;3.60;1.42;;;;;;;;;;5076008;28;20020;-74
2021/12/17 11:20:56;;;;;;;4.38;1.50;;;;;;;;;;5074775;28;20028;-75
2021/12/17 11:23:23;;;;;;;4.07;1.10;;;;;;;;;;5058032;28;20032;-76
2021/12/17 11:25:50;;;;;;;3.35;1.58;;;;;;;;;;5075962;28;20054;-76
2021/12/17 11:28:17;;;;;;;5.88;1.42;;;;;;;;;;5075887;28;20035;-74
2021/12/17 11:30:48;;;;;;;3.85;1.38;;;;;;;;;;5057841;28;20028;-75
2021/12/17 11:33:14;;;;;;;7.05;1.75;;;;;;;;;;5076386;28;20048;-74
2021/12/17 11:35:46;;;;;;;4.85;1.60;;;;;;;;;;5057895;28;20111;-76
2021/12/17 11:38:15;;;;;;;4.85;1.83;;;;;;;;;;5057830;28;20020;-77
2021/12/17 11:40:44;;;;;;;6.18;1.50;;;;;;;;;;5075083;28;20041;-76
2021/12/17 11:43:14;;;;;;;4.57;1.73;;;;;;;;;;5057712;28;20094;-76
2021/12/17 11:45:41;;;;;;;3.50;1.20;;;;;;;;;;5076221;28;20039;-76
2021/12/17 11:48:12;;;;;;;5.00;1.67;;;;;;;;;;5075792;28;20029;-76
2021/12/17 11:50:38;;;;;;;2.97;1.42;;;;;;;;;;5057602;28;20016;-74
2021/12/17 11:53:19;;;;;;;2.70;1.40;;;;;;;;;;5057414;28;20071;-76
2021/12/17 11:55:47;;;;;;;4.03;1.63;;;;;;;;;;5057414;28;20353;-75
2021/12/17 11:58:16;;;;;;;4.40;1.27;;;;;;;;;;5057393;28;20028;-76
2021/12/17 12:00:42;;;;;;;4.80;1.48;;;;;;;;;;5057335;28;20362;-77
2021/12/17 12:03:21;;;;;;;3.75;1.23;;;;;;;;;;5075765;28;20477;-75
2021/12/17 12:05:50;;;;;;;7.93;1.48;;;;;;;;;;5057259;28;20023;-76
2021/12/17 12:08:40;;;;;;;4.38;1.27;;;;;;;;;;5057194;28;20029;-75
2021/12/17 12:11:14;;;;;;;2.67;0.95;;;;;;;;;;5057226;28;20393;-74
2021/12/17 12:13:42;;;;;;;4.68;1.30;;;;;;;;;;5057079;28;20017;-75
2021/12/17 12:16:10;;;;;;;7.70;1.83;;;;;;;;;;5074977;28;20033;-75
2021/12/17 12:18:50;;;;;;;4.07;1.20;;;;;;;;;;5056950;28;20025;-76
2021/12/17 12:21:20;;;;;;;5.90;1.65;;;;;;;;;;5074805;28;20367;-75
2021/12/17 12:23:48;;;;;;;5.65;1.80;;;;;;;;;;5057214;28;20027;-75
2021/12/17 12:26:16;;;;;;;4.05;1.70;;;;;;;;;;5057077;28;20101;-76
2021/12/17 12:28:45;;;;;;;5.07;1.73;;;;;;;;;;5075009;28;20036;-75
2021/12/17 12:31:15;;;;;;;6.25;2.35;;;;;;;;;;5056712;28;20021;-75
2021/12/17 12:34:00;;;;;;;5.53;1.88;;;;;;;;;;5056679;28;20035;-75
2021/12/17 12:36:45;;;;;;;7.32;2.10;;;;;;;;;;5056590;28;20036;-75
2021/12/17 12:39:23;;;;;;;7.50;1.50;;;;;;;;;;5056213;28;20035;-75
2021/12/17 12:41:49;;;;;;;5.15;2.10;;;;;;;;;;5056529;28;20028;-75
2021/12/17 12:44:16;;;;;;;7.20;2.00;;;;;;;;;;5074897;28;20150;-76
2021/12/17 12:46:53;;;;;;;5.72;2.30;;;;;;;;;;5074938;28;20029;-75
2021/12/17 12:49:37;;;;;;;8.20;2.50;;;;;;;;;;5056405;28;20020;-75
2021/12/17 12:52:24;;;;;;;8.00;2.63;;;;;;;;;;5056320;28;20025;-75
2021/12/17 12:54:52;;;;;;;6.25;2.05;;;;;;;;;;5056338;28;20033;-76
2021/12/17 12:57:39;;;;;;;6.05;2.10;;;;;;;;;;5075026;28;20020;-75
2021/12/17 13:00:19;;;;;;;6.22;2.15;;;;;;;;;;5056094;28;20021;-75
2021/12/17 13:02:48;;;;;;;6.53;2.40;;;;;;;;;;5056170;28;20059;-75
2021/12/17 13:05:14;;;;;;;4.97;2.13;;;;;;;;;;5074046;28;20032;-75
2021/12/17 13:07:46;;;;;;;8.57;2.75;;;;;;;;;;5074506;28;20036;-75
2021/12/17 13:10:23;;;;;;;7.63;2.55;;;;;;;;;;5056101;28;20083;-76
2021/12/17 13:12:50;;;;;;;5.53;2.20;;;;;;;;;;5055986;28;20031;-75
2021/12/17 13:15:38;;;;;;;6.50;2.33;;;;;;;;;;5074397;28;20466;-76
2021/12/17 13:21:19;;;;;;;9.60;2.83;;;;;;;;;;5073779;28;20101;-76
2021/12/17 13:23:54;;;;;;;13.25;2.83;;;;;;;;;;5055872;28;20028;-75
2021/12/17 13:26:23;;;;;;;8.30;2.70;;;;;;;;;;5056608;28;20461;-75
2021/12/17 13:28:54;;;;;;;7.95;2.45;;;;;;;;;;5055745;28;20062;-76
2021/12/17 13:31:35;;;;;;;9.50;2.42;;;;;;;;;;5056526;28;20044;-76
2021/12/17 13:34:06;;;;;;;7.53;2.45;;;;;;;;;;5055724;28;20039;-76
2021/12/17 13:36:33;;;;;;;8.35;2.67;;;;;;;;;;5073550;28;20028;-75
2021/12/17 13:38:59;;;;;;;5.30;2.40;;;;;;;;;;5055571;28;20031;-75
2021/12/17 13:41:38;;;;;;;8.43;2.50;;;;;;;;;;5073177;28;20044;-76
2021/12/17 13:44:05;;;;;;;5.68;2.38;;;;;;;;;;5054937;28;20459;-76
2021/12/17 13:46:35;;;;;;;4.95;2.20;;;;;;;;;;5073987;28;20025;-77
2021/12/17 13:49:02;;;;;;;8.43;2.70;;;;;;;;;;5055488;28;20036;-76
2021/12/17 13:51:29;;;;;;;9.10;3.20;;;;;;;;;;5073386;28;20032;-77
2021/12/17 13:53:57;;;;;;;6.38;2.47;;;;;;;;;;5073406;28;20389;-77
2021/12/17 13:56:24;;;;;;;6.25;2.38;;;;;;;;;;5073336;28;20118;-77
2021/12/17 13:58:50;;;;;;;6.38;2.55;;;;;;;;;;5073806;28;20100;-77
2021/12/17 14:01:23;;;;;;;8.35;3.03;;;;;;;;;;5073769;28;20036;-77
2021/12/17 14:03:49;;;;;;;10.93;4.18;;;;;;;;;;5073247;28;20024;-77
2021/12/17 14:06:22;;;;;;;11.38;3.60;;;;;;;;;;5073240;28;20035;-77
2021/12/17 14:08:48;;;;;;;10.10;3.60;;;;;;;;;;5055270;28;20390;-77
2021/12/17 14:11:19;;;;;;;10.18;3.92;;;;;;;;;;5073167;28;20052;-77
2021/12/17 14:13:45;;;;;;;10.90;5.40;;;;;;;;;;5055119;28;20021;-77
2021/12/17 14:16:13;;;;;;;12.82;4.82;;;;;;;;;;5073693;28;20107;-77
2021/12/17 14:18:39;;;;;;;11.80;3.63;;;;;;;;;;5073157;28;20534;-77
2021/12/17 14:21:06;;;;;;;13.20;5.15;;;;;;;;;;5072978;28;20033;-77
2021/12/17 14:23:33;;;;;;;11.48;4.18;;;;;;;;;;5073153;28;20028;-77
2021/12/17 14:26:00;;;;;;;8.98;3.40;;;;;;;;;;5055906;28;20020;-76
2021/12/17 14:28:30;;;;;;;15.15;5.18;;;;;;;;;;5073034;28;20103;-76
2021/12/17 14:30:57;;;;;;;13.93;4.53;;;;;;;;;;5055042;28;20381;-76
2021/12/17 14:33:24;;;;;;;22.10;7.30;;;;;;;;;;5073016;28;20094;-76
2021/12/17 14:36:09;;;;;;;24.77;8.00;;;;;;;;;;5054982;28;20398;-77
2021/12/17 14:38:36;;;;;;;19.85;6.60;;;;;;;;;;5073555;28;20027;-77
2021/12/17 14:41:03;;;;;;;18.48;5.78;;;;;;;;;;5072531;28;20098;-77
2021/12/17 14:43:35;;;;;;;17.30;6.05;;;;;;;;;;5072924;28;20392;-77
2021/12/17 14:46:50;;;;;;;15.38;5.20;;;;;;;;;;5055414;28;20476;-77
2021/12/17 15:00:26;;;;;;;12.07;4.68;;;;;;;;;;5077948;28;20457;-77
2021/12/17 15:02:58;;;;;;;13.20;4.80;;;;;;;;;;5058435;28;20033;-76
2021/12/17 15:05:29;;;;;;;11.60;4.53;;;;;;;;;;5058456;28;20025;-76
2021/12/17 15:07:56;;;;;;;12.63;4.68;;;;;;;;;;5058334;28;20035;-76
2021/12/17 15:10:23;;;;;;;14.55;4.68;;;;;;;;;;5058364;28;20024;-76
2021/12/17 15:12:50;;;;;;;9.38;4.43;;;;;;;;;;5076148;28;20053;-76
2021/12/17 15:15:18;;;;;;;13.00;4.30;;;;;;;;;;5058215;28;20084;-77
2021/12/17 15:17:45;;;;;;;14.02;4.65;;;;;;;;;;5058163;28;20481;-76
2021/12/17 15:20:12;;;;;;;12.35;4.65;;;;;;;;;;5076332;28;20448;-75
2021/12/17 15:22:39;;;;;;;12.48;4.88;;;;;;;;;;5041492;28;20037;-75
2021/12/17 15:25:06;;;;;;;11.88;4.38;;;;;;;;;;5058088;28;20024;-74
2021/12/17 15:27:34;;;;;;;13.40;6.63;;;;;;;;;;5058038;28;20120;-74
2021/12/17 15:30:01;;;;;;;10.93;5.43;;;;;;;;;;5051257;28;20036;-73
2021/12/17 15:32:28;;;;;;;17.92;5.50;;;;;;;;;;5055472;28;20032;-74
2021/12/17 15:34:54;;;;;;;10.43;4.60;;;;;;;;;;5057457;28;20028;-73
2021/12/17 15:37:20;;;;;;;13.27;5.50;;;;;;;;;;5057549;28;20477;-73
2021/12/17 15:39:46;;;;;;;14.55;4.60;;;;;;;;;;5048587;28;20038;-74
2021/12/17 15:42:12;;;;;;;10.15;4.72;;;;;;;;;;5034285;28;20128;-74
2021/12/17 15:44:38;;;;;;;13.25;5.63;;;;;;;;;;5034330;28;20025;-74
2021/12/17 15:47:06;;;;;;;12.68;5.60;;;;;;;;;;5034290;28;20032;-74
2021/12/17 15:49:32;;;;;;;16.42;6.15;;;;;;;;;;5035470;28;20022;-74
2021/12/17 15:51:58;;;;;;;11.38;5.03;;;;;;;;;;5034203;28;20029;-74
2021/12/17 15:54:25;;;;;;;12.50;5.43;;;;;;;;;;5035331;28;20371;-74
2021/12/17 15:56:51;;;;;;;12.75;4.82;;;;;;;;;;5035346;28;20025;-75
2021/12/17 15:59:17;;;;;;;13.90;5.20;;;;;;;;;;5035241;28;20455;-75
2021/12/17 16:01:43;;;;;;;14.15;5.20;;;;;;;;;;5035245;28;20034;-75
2021/12/17 16:04:10;;;;;;;13.35;5.28;;;;;;;;;;5033976;28;20053;-74
2021/12/17 16:06:36;;;;;;;14.10;5.35;;;;;;;;;;5033360;28;20124;-74
2021/12/17 16:09:08;;;;;;;13.35;5.68;;;;;;;;;;5033943;28;20029;-74
2021/12/17 16:22:22;;;;;;;13.00;5.28;;;;;;;;;;5034920;28;20044;-73
2021/12/17 16:24:50;;;;;;;13.95;5.70;;;;;;;;;;5033580;28;20033;-75
2021/12/17 16:27:16;;;;;;;13.85;6.40;;;;;;;;;;5033198;28;20116;-74
2021/12/17 16:29:43;;;;;;;11.50;5.13;;;;;;;;;;5033434;28;20116;-74
2021/12/17 16:32:09;;;;;;;16.38;6.10;;;;;;;;;;5034608;28;20437;-73
2021/12/17 16:34:35;;;;;;;13.95;5.72;;;;;;;;;;5033662;28;20027;-74
2021/12/17 16:37:01;;;;;;;15.85;6.00;;;;;;;;;;5033328;28;20474;-73
2021/12/17 16:39:27;;;;;;;10.55;5.32;;;;;;;;;;5038588;28;21406;-73
2021/12/17 16:41:54;;;;;;;11.85;5.00;;;;;;;;;;5074686;28;20040;-73
2021/12/17 16:44:36;;;;;;;12.38;5.35;;;;;;;;;;5074330;28;20070;-74
2021/12/17 16:47:03;;;;;;;10.73;5.28;;;;;;;;;;5056378;28;20109;-73
2021/12/17 16:49:33;;;;;;;12.80;5.38;;;;;;;;;;5074166;28;20020;-73
2021/12/17 16:51:59;;;;;;;11.05;5.38;;;;;;;;;;5074171;28;20477;-73
2021/12/17 16:54:27;;;;;;;12.13;4.90;;;;;;;;;;5074059;28;20025;-73
2021/12/17 16:56:53;;;;;;;10.00;4.63;;;;;;;;;;5073278;28;20032;-75
2021/12/17 16:59:19;;;;;;;13.05;4.55;;;;;;;;;;5055820;28;20020;-75
2021/12/17 17:01:46;;;;;;;13.68;5.13;;;;;;;;;;5055884;28;20043;-74
2021/12/17 17:04:12;;;;;;;11.60;4.90;;;;;;;;;;5073985;28;20120;-74
2021/12/17 17:06:39;;;;;;;13.75;5.30;;;;;;;;;;5074240;28;20032;-75
2021/12/17 17:09:07;;;;;;;9.95;4.82;;;;;;;;;;5056121;28;20025;-73
2021/12/17 17:11:35;;;;;;;12.00;4.63;;;;;;;;;;5073951;28;20027;-75
2021/12/17 17:14:02;;;;;;;13.93;4.95;;;;;;;;;;5073830;28;20021;-73
2021/12/17 17:16:28;;;;;;;10.05;4.43;;;;;;;;;;5055966;28;20028;-74
2021/12/17 17:18:55;;;;;;;12.80;4.38;;;;;;;;;;5073290;28;20453;-73
2021/12/17 17:21:22;;;;;;;12.02;4.70;;;;;;;;;;5074069;28;20020;-73
2021/12/17 17:23:48;;;;;;;10.85;4.30;;;;;;;;;;5073947;28;20074;-73
2021/12/17 17:26:15;;;;;;;10.90;5.03;;;;;;;;;;5055770;28;20381;-75
2021/12/17 17:28:43;;;;;;;13.10;5.13;;;;;;;;;;5074243;28;20025;-76
2021/12/17 17:31:12;;;;;;;11.02;4.70;;;;;;;;;;5073663;28;20354;-76
2021/12/17 17:33:46;;;;;;;10.18;5.18;;;;;;;;;;5056461;28;20111;-75
2021/12/17 17:36:12;;;;;;;9.38;4.50;;;;;;;;;;5074154;28;20110;-73
2021/12/17 17:38:38;;;;;;;11.52;4.82;;;;;;;;;;5073995;28;20350;-73
2021/12/17 17:41:05;;;;;;;11.00;5.13;;;;;;;;;;5073178;28;20190;-73
2021/12/17 17:43:31;;;;;;;10.95;4.65;;;;;;;;;;5074063;28;20032;-73
2021/12/17 17:45:57;;;;;;;12.45;5.28;;;;;;;;;;5073723;28;20434;-74